Time;durP1;ratioP1;P1;durP2;ratioP2;P2;SDS_P1;SDS_P2;PMS_P1;PMS_P2;Temp;Humidity;BMP_temperature;BMP_pressure;BME280_temperature;BME280_humidity;BME280_pressure;Samples;Min_cycle;Max_cycle;Signal;HPM_P1;HPM_P2
2023/05/08 04:28:04;;;;;;;9.82;8.77;;;12.90;95.20;;;;;;5071956;28;20224;-88
2023/05/08 04:30:35;;;;;;;10.32;8.85;;;12.90;95.40;;;;;;5060654;28;20197;-89
2023/05/08 04:33:21;;;;;;;9.57;8.65;;;12.90;95.40;;;;;;5073943;28;20615;-88
2023/05/08 04:35:51;;;;;;;11.45;8.73;;;12.90;95.40;;;;;;5072629;28;20566;-86
2023/05/08 04:38:18;;;;;;;12.57;9.23;;;12.90;95.00;;;;;;5070977;28;20229;-86
2023/05/08 04:40:47;;;;;;;13.65;9.15;;;12.90;95.10;;;;;;5067740;28;20212;-87
2023/05/08 04:43:14;;;;;;;10.15;8.73;;;12.90;95.20;;;;;;5071894;28;20679;-88
2023/05/08 04:45:40;;;;;;;9.45;8.50;;;12.90;95.30;;;;;;5071564;28;20197;-87
2023/05/08 04:58:03;;;;;;;9.88;8.10;;;12.80;94.60;;;;;;5054772;28;20222;-89
2023/05/08 05:01:18;;;;;;;11.02;9.27;;;12.80;94.60;;;;;;5051671;28;20561;-89
2023/05/08 05:03:45;;;;;;;10.25;9.25;;;12.80;94.60;;;;;;5051141;28;20205;-89
2023/05/08 05:09:29;;;;;;;10.65;9.15;;;12.60;95.10;;;;;;5069647;28;20193;-87
2023/05/08 05:11:56;;;;;;;11.10;8.82;;;12.60;95.30;;;;;;5072119;28;20197;-87
2023/05/08 05:14:24;;;;;;;10.15;8.85;;;12.60;95.70;;;;;;5069477;28;20673;-87
2023/05/08 05:16:52;;;;;;;10.02;8.75;;;12.60;95.40;;;;;;5071529;28;20231;-87
2023/05/08 05:19:19;;;;;;;10.23;9.10;;;12.70;95.20;;;;;;5092960;22;20631;-89
2023/05/08 05:21:46;;;;;;;14.30;9.23;;;12.70;95.10;;;;;;5071233;28;20258;-86
2023/05/08 05:24:13;;;;;;;12.35;8.80;;;12.60;95.90;;;;;;5070446;28;20259;-88
2023/05/08 05:26:40;;;;;;;10.55;9.30;;;12.50;96.30;;;;;;5071360;28;20201;-89
2023/05/08 05:29:07;;;;;;;10.65;9.55;;;12.50;96.30;;;;;;5066578;28;20675;-89
2023/05/08 05:31:36;;;;;;;11.05;9.85;;;12.50;96.70;;;;;;5071818;28;20216;-88
2023/05/08 05:34:03;;;;;;;10.13;8.48;;;12.50;96.90;;;;;;5075493;28;20300;-88
2023/05/08 05:36:30;;;;;;;11.63;10.40;;;12.50;96.50;;;;;;5068767;28;20210;-89
2023/05/08 05:38:58;;;;;;;11.35;9.13;;;12.70;96.30;;;;;;5073964;28;20193;-88
2023/05/08 05:41:25;;;;;;;10.50;8.20;;;12.70;96.30;;;;;;5070214;28;20198;-87
2023/05/08 05:43:52;;;;;;;10.80;8.90;;;12.70;96.30;;;;;;5067370;28;20602;-88
2023/05/08 05:46:20;;;;;;;10.10;9.00;;;12.70;95.50;;;;;;5074399;28;20271;-88
2023/05/08 05:48:49;;;;;;;9.00;8.10;;;12.80;95.20;;;;;;5072894;28;20235;-89
2023/05/08 05:51:17;;;;;;;9.77;8.77;;;12.80;94.50;;;;;;5074404;28;20199;-88
2023/05/08 05:53:46;;;;;;;9.82;8.20;;;12.80;94.60;;;;;;5073015;28;20220;-88
2023/05/08 05:56:12;;;;;;;9.25;8.30;;;12.80;94.80;;;;;;5075102;28;20192;-88
2023/05/08 05:58:43;;;;;;;9.60;8.50;;;12.80;94.50;;;;;;5072857;28;20193;-88
2023/05/08 06:01:10;;;;;;;10.23;9.13;;;12.80;94.10;;;;;;5074125;28;20201;-88
2023/05/08 06:03:37;;;;;;;9.32;8.43;;;12.90;93.90;;;;;;5076622;28;20197;-88
2023/05/08 06:06:06;;;;;;;10.43;8.48;;;13.00;93.80;;;;;;5075926;28;20193;-87
2023/05/08 06:08:33;;;;;;;10.55;8.10;;;13.10;93.60;;;;;;5067174;28;20225;-88
2023/05/08 06:11:01;;;;;;;10.02;8.48;;;13.10;92.90;;;;;;5070345;28;20235;-88
2023/05/08 06:13:28;;;;;;;9.48;8.52;;;13.10;92.80;;;;;;5068932;28;20221;-87
2023/05/08 06:15:56;;;;;;;11.65;8.75;;;13.00;93.50;;;;;;5057192;28;20209;-88
2023/05/08 06:21:14;;;;;;;9.23;8.32;;;12.90;93.30;;;;;;5066597;28;20209;-88
2023/05/08 06:27:07;;;;;;;9.30;8.00;;;12.90;93.30;;;;;;5014728;28;20182;-88
2023/05/08 06:29:53;;;;;;;10.27;8.27;;;12.90;93.70;;;;;;5015177;28;20234;-89
2023/05/08 06:32:22;;;;;;;8.75;7.85;;;13.00;93.00;;;;;;5043195;28;20684;-87
2023/05/08 06:34:49;;;;;;;10.48;8.98;;;13.10;92.50;;;;;;5059637;28;20620;-89
2023/05/08 06:37:18;;;;;;;9.32;8.23;;;13.00;92.70;;;;;;5066604;28;20239;-88
2023/05/08 06:39:45;;;;;;;10.73;8.50;;;13.00;93.20;;;;;;5075203;28;20193;-89
2023/05/08 06:42:15;;;;;;;10.50;8.77;;;13.10;92.90;;;;;;5075701;28;20284;-88
2023/05/08 06:44:44;;;;;;;10.65;7.88;;;13.10;93.00;;;;;;5073802;28;20197;-89
2023/05/08 06:47:11;;;;;;;10.88;8.10;;;13.10;92.80;;;;;;5077249;28;20216;-89
2023/05/08 06:49:41;;;;;;;8.65;7.78;;;13.20;92.10;;;;;;5068167;28;20209;-91
2023/05/08 06:55:19;;;;;;;10.35;7.88;;;13.40;91.10;;;;;;5080299;28;20228;-91
2023/05/08 06:57:50;;;;;;;9.20;8.30;;;13.40;91.80;;;;;;5091549;28;20181;-92
2023/05/08 07:00:19;;;;;;;12.10;8.30;;;13.40;91.10;;;;;;5081864;28;20190;-89
2023/05/08 07:02:47;;;;;;;9.07;8.23;;;13.40;91.10;;;;;;5082194;28;20569;-90
2023/05/08 07:05:15;;;;;;;9.68;7.93;;;13.60;91.10;;;;;;5069079;28;20285;-90
2023/05/08 07:07:47;;;;;;;8.80;7.88;;;13.70;91.00;;;;;;5071394;28;20197;-89
2023/05/08 07:10:15;;;;;;;11.40;8.00;;;13.70;91.20;;;;;;5072790;28;20194;-89
2023/05/08 07:12:43;;;;;;;11.32;8.50;;;13.90;89.00;;;;;;5073914;28;20201;-89
2023/05/08 07:17:53;;;;;;;8.43;7.63;;;13.90;90.00;;;;;;5067090;28;20244;-90
2023/05/08 07:20:23;;;;;;;10.02;7.60;;;14.00;88.90;;;;;;5071681;28;20199;-91
2023/05/08 07:22:51;;;;;;;8.40;7.35;;;14.20;86.10;;;;;;5069150;28;20189;-91
2023/05/08 07:25:18;;;;;;;8.43;7.63;;;14.30;84.30;;;;;;5071054;28;20201;-92
2023/05/08 07:27:46;;;;;;;9.73;8.05;;;14.30;85.80;;;;;;5069429;28;20220;-92
2023/05/08 07:30:15;;;;;;;10.40;8.50;;;14.30;86.20;;;;;;5071665;28;20288;-91
2023/05/08 07:32:42;;;;;;;8.38;7.57;;;14.40;85.30;;;;;;5068897;28;20259;-91
2023/05/08 07:35:11;;;;;;;11.75;7.88;;;14.40;83.80;;;;;;5071508;28;20232;-90
2023/05/08 07:37:38;;;;;;;10.82;8.00;;;14.40;85.30;;;;;;5064400;28;20244;-91
2023/05/08 07:40:06;;;;;;;8.32;7.53;;;14.40;83.50;;;;;;5071399;28;20572;-88
2023/05/08 07:42:39;;;;;;;8.73;7.18;;;14.40;81.90;;;;;;5064393;28;20668;-86
2023/05/08 07:45:06;;;;;;;9.30;8.30;;;14.40;81.30;;;;;;5070074;28;20267;-87
2023/05/08 07:47:35;;;;;;;8.75;7.85;;;14.50;83.10;;;;;;5068282;28;20198;-87
2023/05/08 07:50:02;;;;;;;8.82;7.93;;;14.70;80.90;;;;;;5061749;28;20620;-88
2023/05/08 07:52:29;;;;;;;8.55;7.18;;;14.80;80.20;;;;;;5066539;28;20193;-88
2023/05/08 07:54:56;;;;;;;9.35;7.60;;;14.80;81.20;;;;;;5063811;28;20232;-90
2023/05/08 07:57:23;;;;;;;9.93;7.55;;;14.80;78.70;;;;;;5062320;28;20201;-88
2023/05/08 07:59:50;;;;;;;10.02;7.60;;;14.90;80.30;;;;;;5063094;28;20217;-89
2023/05/08 08:02:17;;;;;;;7.32;6.63;;;15.00;77.30;;;;;;5064266;28;20204;-88
2023/05/08 08:04:48;;;;;;;9.75;7.50;;;15.10;77.40;;;;;;5067261;28;20259;-88
2023/05/08 08:07:15;;;;;;;8.63;7.82;;;15.50;77.70;;;;;;5067977;28;21450;-88
2023/05/08 08:09:43;;;;;;;8.65;7.75;;;15.50;76.60;;;;;;5069009;28;20205;-90
2023/05/08 08:12:13;;;;;;;8.65;6.72;;;15.70;70.30;;;;;;5062048;28;20219;-89
2023/05/08 08:14:40;;;;;;;7.90;7.10;;;15.90;65.00;;;;;;5048110;28;20546;-89
2023/05/08 08:17:08;;;;;;;9.02;8.13;;;15.90;66.40;;;;;;5062644;28;20499;-88
2023/05/08 08:19:34;;;;;;;6.85;6.00;;;16.00;63.90;;;;;;5068764;28;20293;-91
2023/05/08 08:24:45;;;;;;;7.80;7.00;;;16.40;59.40;;;;;;5071566;28;20684;-89
2023/05/08 08:27:13;;;;;;;7.97;7.18;;;16.30;59.30;;;;;;5069015;28;20193;-90
2023/05/08 08:29:40;;;;;;;8.95;7.22;;;16.40;57.70;;;;;;5066498;28;20205;-91
2023/05/08 08:32:08;;;;;;;8.90;7.68;;;16.60;55.00;;;;;;5071973;28;20201;-91
2023/05/08 08:34:35;;;;;;;9.25;7.35;;;16.60;56.60;;;;;;5067130;28;20714;-91
2023/05/08 08:37:05;;;;;;;9.32;7.70;;;16.70;56.90;;;;;;5064520;28;20564;-90
2023/05/08 08:39:34;;;;;;;9.07;8.07;;;16.90;53.10;;;;;;5066199;28;20204;-88
2023/05/08 08:42:01;;;;;;;10.05;8.70;;;16.90;53.10;;;;;;5056084;28;20209;-88
2023/05/08 08:44:28;;;;;;;10.82;7.75;;;16.70;54.90;;;;;;5065097;28;20280;-89
2023/05/08 08:46:58;;;;;;;12.00;8.50;;;16.80;55.40;;;;;;5066834;28;20193;-89
2023/05/08 08:49:29;;;;;;;9.73;8.50;;;16.70;55.80;;;;;;5055636;28;20194;-89
2023/05/08 08:51:59;;;;;;;9.27;8.02;;;17.00;53.30;;;;;;5068516;28;20201;-89
2023/05/08 08:54:30;;;;;;;10.63;8.63;;;17.20;50.10;;;;;;5063834;28;20304;-88
2023/05/08 08:57:00;;;;;;;12.60;8.48;;;17.20;53.30;;;;;;5065554;28;20204;-90
2023/05/08 08:59:28;;;;;;;10.45;7.85;;;17.70;50.90;;;;;;5067141;28;20692;-92
2023/05/08 09:01:57;;;;;;;13.65;8.13;;;18.10;43.70;;;;;;5065208;28;20197;-89
2023/05/08 09:04:26;;;;;;;9.50;8.55;;;18.70;39.20;;;;;;5065824;28;20197;-88
2023/05/08 09:06:53;;;;;;;11.63;8.60;;;18.90;36.80;;;;;;5068275;28;20194;-90
2023/05/08 09:09:21;;;;;;;10.50;8.07;;;18.80;37.40;;;;;;5070402;28;20220;-88
2023/05/08 09:11:51;;;;;;;8.70;7.90;;;19.50;33.50;;;;;;5069467;28;20251;-86
2023/05/08 09:14:18;;;;;;;9.32;8.20;;;19.70;31.80;;;;;;5070646;28;20217;-86
2023/05/08 09:16:45;;;;;;;9.57;8.52;;;19.80;31.90;;;;;;5080580;28;20201;-86
2023/05/08 09:19:14;;;;;;;9.40;8.50;;;20.10;32.20;;;;;;5066172;28;20217;-86
2023/05/08 09:21:41;;;;;;;9.88;8.82;;;20.30;32.00;;;;;;5071798;28;20194;-87
2023/05/08 09:24:08;;;;;;;13.57;9.60;;;20.90;28.40;;;;;;5067671;28;20201;-86
2023/05/08 09:26:36;;;;;;;11.07;8.45;;;20.90;27.70;;;;;;5072384;28;20205;-86
2023/05/08 09:29:14;;;;;;;13.07;8.93;;;20.70;29.00;;;;;;5065411;28;20197;-87
2023/05/08 09:31:42;;;;;;;9.70;8.80;;;20.80;28.10;;;;;;5067298;28;20292;-86
2023/05/08 09:34:10;;;;;;;10.65;9.57;;;20.90;29.00;;;;;;5069528;28;20225;-88
2023/05/08 09:36:39;;;;;;;9.98;8.77;;;20.80;28.60;;;;;;5067526;28;20659;-87
2023/05/08 09:39:11;;;;;;;9.70;8.70;;;21.00;28.30;;;;;;5068629;28;20258;-87
2023/05/08 09:41:38;;;;;;;8.90;8.05;;;21.50;26.60;;;;;;5065989;28;20615;-86
2023/05/08 09:44:06;;;;;;;10.23;9.23;;;22.20;24.70;;;;;;5065244;28;20193;-87
2023/05/08 09:46:35;;;;;;;12.05;10.93;;;22.70;23.00;;;;;;5067885;28;20193;-87
2023/05/08 09:49:04;;;;;;;10.85;9.77;;;23.20;20.30;;;;;;5062202;28;20312;-88
2023/05/08 09:51:32;;;;;;;11.40;9.95;;;22.90;23.70;;;;;;5070672;28;20262;-87
2023/05/08 09:54:02;;;;;;;11.68;10.55;;;22.60;22.90;;;;;;5069326;28;20213;-86
2023/05/08 09:56:34;;;;;;;10.88;9.88;;;22.30;23.80;;;;;;5068629;28;20232;-88
2023/05/08 09:59:03;;;;;;;11.98;10.77;;;23.00;21.20;;;;;;5071665;28;20196;-87
2023/05/08 10:01:39;;;;;;;12.27;11.07;;;23.50;21.10;;;;;;5075718;28;20225;-87
2023/05/08 10:04:06;;;;;;;12.98;11.75;;;22.50;22.50;;;;;;5075134;28;20188;-87
2023/05/08 10:06:35;;;;;;;11.45;10.35;;;23.30;21.10;;;;;;5073109;28;20192;-88
2023/05/08 10:09:09;;;;;;;11.77;10.57;;;23.40;20.20;;;;;;5064463;28;20718;-85
2023/05/08 10:11:37;;;;;;;12.65;11.45;;;23.30;20.40;;;;;;5064212;28;20261;-86
2023/05/08 10:14:04;;;;;;;11.40;10.30;;;23.30;20.60;;;;;;5069040;28;20216;-86
2023/05/08 10:16:35;;;;;;;13.75;11.13;;;22.40;22.30;;;;;;5073510;28;20559;-87
2023/05/08 10:19:08;;;;;;;12.85;10.73;;;22.50;22.90;;;;;;5069061;28;20227;-87
2023/05/08 10:21:37;;;;;;;11.73;10.63;;;22.30;24.10;;;;;;5076201;28;20205;-84
2023/05/08 10:24:07;;;;;;;13.77;12.45;;;22.70;21.90;;;;;;5071721;28;20287;-85
2023/05/08 10:26:38;;;;;;;14.40;11.63;;;22.70;22.20;;;;;;5066886;28;20201;-86
2023/05/08 10:29:07;;;;;;;12.75;11.48;;;22.70;21.80;;;;;;5047164;28;20197;-85
2023/05/08 10:31:36;;;;;;;12.50;11.40;;;22.70;21.40;;;;;;5061231;28;20193;-85
2023/05/08 10:34:07;;;;;;;12.55;11.25;;;22.40;22.70;;;;;;5070785;28;20207;-85
2023/05/08 10:36:37;;;;;;;13.60;12.23;;;21.80;23.70;;;;;;5063961;28;20204;-86
2023/05/08 10:39:05;;;;;;;11.02;10.02;;;21.50;26.00;;;;;;5062929;28;20193;-86
2023/05/08 10:41:32;;;;;;;14.38;13.07;;;21.60;24.80;;;;;;5065051;28;20208;-85
2023/05/08 10:44:00;;;;;;;18.52;16.65;;;21.60;24.70;;;;;;5063960;28;20215;-84
2023/05/08 10:46:36;;;;;;;13.00;11.80;;;21.60;26.40;;;;;;5067663;28;20196;-86
2023/05/08 10:49:16;;;;;;;13.02;11.77;;;22.00;23.90;;;;;;5067472;28;20254;-84
2023/05/08 10:51:53;;;;;;;13.75;12.40;;;21.70;25.80;;;;;;5066078;28;20211;-86
2023/05/08 10:54:30;;;;;;;13.38;11.98;;;21.90;23.90;;;;;;5064099;28;20231;-85
2023/05/08 10:57:09;;;;;;;13.98;12.60;;;21.80;24.20;;;;;;5072501;28;20227;-87
2023/05/08 10:59:36;;;;;;;13.77;12.48;;;21.70;26.90;;;;;;5064431;28;20205;-85
2023/05/08 11:02:07;;;;;;;15.73;13.20;;;21.60;24.20;;;;;;5061365;28;20193;-87
2023/05/08 11:04:35;;;;;;;15.32;13.73;;;21.50;26.10;;;;;;5065248;28;20194;-88
2023/05/08 11:07:03;;;;;;;14.32;12.90;;;21.10;27.10;;;;;;5071752;28;20205;-88
2023/05/08 11:09:45;;;;;;;15.70;14.18;;;20.60;27.80;;;;;;5071093;28;20301;-84
2023/05/08 11:12:21;;;;;;;16.25;14.65;;;20.50;28.00;;;;;;5068410;28;20243;-85
2023/05/08 11:14:58;;;;;;;15.55;13.88;;;20.00;30.50;;;;;;5071623;28;20220;-85
2023/05/08 11:17:26;;;;;;;16.92;15.18;;;20.10;30.00;;;;;;5062369;28;20213;-86
2023/05/08 11:19:59;;;;;;;19.77;14.88;;;19.70;31.80;;;;;;5066355;28;20244;-84
2023/05/08 11:22:28;;;;;;;18.83;13.52;;;19.40;33.80;;;;;;5062389;28;20201;-84
2023/05/08 11:25:00;;;;;;;15.30;13.70;;;19.40;31.60;;;;;;5066952;28;20706;-88
2023/05/08 11:27:36;;;;;;;16.83;14.77;;;19.50;31.60;;;;;;5068033;28;20204;-88
2023/05/08 11:30:19;;;;;;;16.67;15.07;;;19.50;31.60;;;;;;5067707;28;20247;-88
2023/05/08 11:33:22;;;;;;;17.38;14.82;;;19.30;31.90;;;;;;5055288;28;20544;-88
2023/05/08 11:35:54;;;;;;;17.15;15.35;;;19.40;36.00;;;;;;5059919;28;20217;-88
2023/05/08 11:38:33;;;;;;;17.38;14.07;;;19.50;34.70;;;;;;5064348;28;20194;-88
2023/05/08 11:41:05;;;;;;;16.60;14.90;;;19.60;31.70;;;;;;5066334;28;20201;-88
2023/05/08 11:44:07;;;;;;;16.23;14.65;;;19.70;31.80;;;;;;5068285;28;20197;-87
2023/05/08 11:46:39;;;;;;;18.65;15.30;;;19.60;31.70;;;;;;5061582;28;20205;-94
2023/05/08 11:49:11;;;;;;;15.93;13.50;;;19.50;33.30;;;;;;5065563;28;20202;-89
2023/05/08 11:51:43;;;;;;;15.93;14.32;;;19.60;31.70;;;;;;5064034;28;20202;-88
2023/05/08 11:54:11;;;;;;;15.07;13.57;;;19.40;31.80;;;;;;5070319;28;20196;-90
2023/05/08 11:56:39;;;;;;;15.77;14.18;;;19.10;34.90;;;;;;5063318;28;20316;-88
2023/05/08 11:59:07;;;;;;;25.90;19.77;;;19.30;34.60;;;;;;5067765;28;20646;-88
2023/05/08 12:01:35;;;;;;;18.23;15.23;;;19.30;35.90;;;;;;5062004;28;20201;-88
2023/05/08 12:04:07;;;;;;;15.63;13.68;;;19.30;33.20;;;;;;5068359;28;20201;-88
2023/05/08 12:06:37;;;;;;;15.13;13.52;;;19.50;34.20;;;;;;5070155;28;20193;-89
2023/05/08 12:09:19;;;;;;;13.75;12.45;;;19.70;33.50;;;;;;5059744;28;20202;-89
2023/05/08 12:11:46;;;;;;;17.13;15.43;;;19.90;32.10;;;;;;5060792;28;20595;-89
2023/05/08 12:14:18;;;;;;;17.40;15.65;;;19.80;31.90;;;;;;5063708;28;20655;-88
2023/05/08 12:16:45;;;;;;;19.08;15.88;;;19.80;32.10;;;;;;5057066;28;20289;-89
2023/05/08 12:19:13;;;;;;;16.73;14.68;;;19.60;34.50;;;;;;5048369;28;20233;-89
2023/05/08 12:21:46;;;;;;;15.38;13.75;;;19.70;35.10;;;;;;5055698;28;20205;-88
2023/05/08 12:24:17;;;;;;;16.33;14.57;;;19.60;31.80;;;;;;5067832;28;20201;-88
2023/05/08 12:26:44;;;;;;;14.65;13.23;;;19.70;31.90;;;;;;5057203;28;20201;-88
2023/05/08 12:29:11;;;;;;;16.45;14.60;;;19.80;31.90;;;;;;5059797;28;20716;-89
2023/05/08 12:31:38;;;;;;;15.30;13.85;;;19.90;32.00;;;;;;5062827;28;20664;-89
2023/05/08 12:34:06;;;;;;;15.00;13.50;;;19.70;31.80;;;;;;5063675;28;20197;-88
2023/05/08 12:36:36;;;;;;;15.80;14.25;;;19.60;31.70;;;;;;5068060;28;20217;-88
2023/05/08 12:39:11;;;;;;;16.63;14.82;;;19.30;31.50;;;;;;5066808;28;20201;-88
2023/05/08 12:41:47;;;;;;;16.73;14.10;;;19.40;31.60;;;;;;5065153;28;20256;-88
2023/05/08 12:44:23;;;;;;;17.08;15.27;;;19.40;32.10;;;;;;5048193;28;20193;-87
2023/05/08 12:46:51;;;;;;;17.67;15.77;;;19.40;31.60;;;;;;5059011;28;20658;-88
2023/05/08 12:49:27;;;;;;;14.40;12.93;;;19.30;31.50;;;;;;5062757;28;20252;-88
2023/05/08 12:52:02;;;;;;;16.50;14.85;;;19.40;31.60;;;;;;5073298;28;20243;-92
2023/05/08 12:54:35;;;;;;;16.35;14.60;;;19.50;31.60;;;;;;5052933;28;20224;-93
2023/05/08 13:08:19;;;;;;;15.20;13.70;;;19.70;31.80;;;;;;5036919;28;20280;-92
2023/05/08 13:16:13;;;;;;;17.52;15.73;;;19.50;31.60;;;;;;5062661;28;20220;-91
2023/05/08 13:18:40;;;;;;;17.77;15.98;;;19.40;31.60;;;;;;5069434;28;20689;-91
2023/05/08 13:21:27;;;;;;;16.40;14.80;;;19.40;31.60;;;;;;5066299;28;20638;-92
2023/05/08 13:23:55;;;;;;;18.20;16.17;;;19.20;33.00;;;;;;5057866;28;20243;-91
2023/05/08 13:26:24;;;;;;;17.38;15.57;;;19.40;33.50;;;;;;5067354;28;20311;-92
2023/05/08 13:34:15;;;;;;;16.42;14.70;;;19.00;37.20;;;;;;5043516;28;20206;-94
2023/05/08 13:37:29;;;;;;;17.75;14.95;;;18.90;37.30;;;;;;5066166;28;20224;-92
2023/05/08 13:43:41;;;;;;;15.75;14.10;;;18.70;39.30;;;;;;5073612;28;20211;-92
2023/05/08 13:48:57;;;;;;;17.90;14.10;;;18.60;40.30;;;;;;5073037;28;20198;-89
2023/05/08 13:51:24;;;;;;;16.63;14.15;;;18.50;40.70;;;;;;5094792;28;20252;-90
2023/05/08 13:53:51;;;;;;;16.00;14.23;;;18.50;40.70;;;;;;5083650;28;20235;-90
2023/05/08 14:08:03;;;;;;;14.50;12.65;;;18.90;36.80;;;;;;5018482;28;20265;-94
2023/05/08 14:10:30;;;;;;;13.98;12.32;;;19.00;34.50;;;;;;5075979;28;20193;-95
2023/05/08 14:12:57;;;;;;;13.50;12.25;;;19.00;34.20;;;;;;5076778;28;20204;-92
2023/05/08 14:33:13;;;;;;;14.93;11.10;;;18.20;32.70;;;;;;5110652;22;20232;-93
2023/05/08 14:35:42;;;;;;;11.57;10.18;;;18.00;35.80;;;;;;5122949;28;20683;-93
2023/05/08 14:44:32;;;;;;;9.38;7.82;;;18.00;31.70;;;;;;5104698;28;20187;-92
2023/05/08 14:47:10;;;;;;;9.55;8.65;;;18.10;30.50;;;;;;5108867;28;20192;-91
2023/05/08 14:49:49;;;;;;;12.00;8.88;;;18.00;30.40;;;;;;5098848;28;20520;-91
2023/05/08 14:53:11;;;;;;;9.50;8.10;;;17.70;30.10;;;;;;5095882;28;20226;-92
2023/05/08 14:58:38;;;;;;;12.15;8.88;;;17.70;31.30;;;;;;5034660;28;20190;-90
2023/05/08 15:04:51;;;;;;;10.15;9.05;;;18.00;30.40;;;;;;5036139;28;20186;-90
2023/05/08 15:07:18;;;;;;;11.32;9.27;;;18.00;30.40;;;;;;5063799;28;20204;-91
2023/05/08 15:09:46;;;;;;;11.25;9.30;;;17.70;34.10;;;;;;5110208;28;20200;-93
2023/05/08 15:12:35;;;;;;;16.23;8.85;;;17.60;32.50;;;;;;5090520;28;20306;-90
2023/05/08 15:15:02;;;;;;;10.52;9.43;;;17.60;31.20;;;;;;5090826;28;20196;-92
2023/05/08 15:17:29;;;;;;;11.07;9.43;;;17.50;32.10;;;;;;5089448;28;20242;-94
2023/05/08 15:19:56;;;;;;;13.23;9.98;;;17.50;32.90;;;;;;5078602;28;20196;-91
2023/05/08 15:22:23;;;;;;;10.90;9.73;;;17.40;34.00;;;;;;5111934;27;20196;-96
2023/05/08 15:25:10;;;;;;;10.50;9.20;;;17.50;34.60;;;;;;5106014;28;20194;-96
2023/05/08 15:27:40;;;;;;;11.75;9.32;;;17.50;34.60;;;;;;5094619;28;20203;-92
2023/05/08 15:46:30;;;;;;;10.88;9.77;;;17.90;35.20;;;;;;5117583;28;20624;-94
2023/05/08 16:08:23;;;;;;;11.27;10.15;;;17.80;31.80;;;;;;5029154;28;20205;-91
2023/05/08 16:19:24;;;;;;;15.68;12.00;;;17.40;35.50;;;;;;5964492;22;20224;-89
2023/05/08 16:21:52;;;;;;;15.88;11.13;;;17.40;35.00;;;;;;5051269;28;20209;-88
2023/05/08 16:24:19;;;;;;;12.75;11.45;;;17.40;36.20;;;;;;5056554;28;20267;-92
2023/05/08 16:26:46;;;;;;;12.30;11.02;;;17.30;37.40;;;;;;5075443;28;20209;-91
2023/05/08 16:29:32;;;;;;;12.70;11.40;;;17.30;36.20;;;;;;5058039;28;20190;-93
2023/05/08 18:14:37;;;;;;;17.88;16.08;;;15.70;69.50;;;;;;6248256;22;20288;-89
